Terminal Aerodrome Forecast
Issued by NWS Cleveland, OH

Home | Current Version | Previous Version | Graphics & Text | Print | Product List | Glossary Off
Versions: 1 2 3 4 5 6 7 8 9 10 11 12 13 14 15 16 17 18 19 20 21 22 23 24 25 26 27 28 29 30 31 32 33 34 35 36

000
FTUS41 KCLE 300532
TAFCLE
TAF
KCLE 300532Z 3006/3112 07010KT P6SM OVC120
     FM301000 08012KT P6SM SCT025 OVC050
     FM301400 08014KT 6SM -SHRA BR SCT010 OVC018
      TEMPO 3017/3020 2SM -RA BR OVC010
     FM302100 10013KT 6SM -DZ BR OVC015
     FM310000 13012KT 5SM -SHRA BR OVC010 PROB30 3102/3106 1SM TSRA
      BR OVC008CB=

USA.gov is the U.S. government's official web portal to all federal, state and local government web resources and services.